createdAt,value
2022-10-09T00:03:58.981Z,10.13
2022-10-09T00:08:43.874Z,14.30
2022-10-09T00:13:27.470Z,17.27
2022-10-09T00:18:14.931Z,12.80
2022-10-09T00:22:58.359Z,12.73
2022-10-09T00:27:41.782Z,13.27
2022-10-09T00:32:25.403Z,7.93
2022-10-09T00:37:10.482Z,8.70
2022-10-09T00:41:54.288Z,11.97
2022-10-09T00:46:43.752Z,12.33
2022-10-09T00:51:27.923Z,16.53
2022-10-09T00:56:12.823Z,10.67
2022-10-09T01:00:56.381Z,8.90
2022-10-09T01:05:51.149Z,11.60
2022-10-09T01:10:40.962Z,12.53
2022-10-09T01:15:29.864Z,6.33
2022-10-09T01:20:42.251Z,9.93
2022-10-09T01:25:32.459Z,10.67
2022-10-09T01:30:17.338Z,8.20
2022-10-09T01:35:01.995Z,12.10
2022-10-09T01:39:47.715Z,16.90
2022-10-09T01:44:33.528Z,13.33
2022-10-09T01:49:29.390Z,11.70
2022-10-09T01:54:14.766Z,8.10
2022-10-09T01:59:02.198Z,8.33
2022-10-09T02:03:49.905Z,8.80
2022-10-09T02:08:38.275Z,6.77
2022-10-09T02:13:22.426Z,8.50
2022-10-09T02:18:12.451Z,9.63
2022-10-09T02:22:58.518Z,8.10
2022-10-09T02:27:43.556Z,7.20
2022-10-09T02:32:27.112Z,9.47
2022-10-09T02:37:10.737Z,7.87
2022-10-09T02:41:54.248Z,9.37
2022-10-09T02:46:39.228Z,11.53
2022-10-09T02:51:23.035Z,8.13
2022-10-09T02:56:06.813Z,10.53
2022-10-09T03:00:50.748Z,15.37
2022-10-09T03:05:35.617Z,5.77
2022-10-09T03:10:19.827Z,10.00
2022-10-09T03:15:03.424Z,9.33
2022-10-09T03:19:46.867Z,9.90
2022-10-09T03:24:32.043Z,7.53
2022-10-09T03:29:15.492Z,11.47
2022-10-09T03:33:59.089Z,12.23
2022-10-09T03:38:42.571Z,7.93
2022-10-09T03:43:27.476Z,12.67
2022-10-09T03:48:11.508Z,14.33
2022-10-09T03:52:54.898Z,8.07
2022-10-09T03:57:38.334Z,11.97
2022-10-09T04:02:23.180Z,8.70
2022-10-09T04:07:06.733Z,9.57
2022-10-09T04:11:50.193Z,11.00
2022-10-09T04:16:33.702Z,14.63
2022-10-09T04:21:18.644Z,10.93
2022-10-09T04:26:02.569Z,11.33
2022-10-09T04:30:45.985Z,9.10
2022-10-09T04:35:29.446Z,12.10
2022-10-09T04:40:14.276Z,10.30
2022-10-09T04:44:57.757Z,13.87
2022-10-09T04:49:41.148Z,13.33
2022-10-09T04:54:24.589Z,16.03
2022-10-09T04:59:09.486Z,9.23
2022-10-09T05:03:53.863Z,10.40
2022-10-09T05:08:37.895Z,11.97
2022-10-09T05:13:21.343Z,12.20
2022-10-09T05:18:06.370Z,8.63
2022-10-09T05:22:50.425Z,10.63
2022-10-09T05:27:34.033Z,9.43
2022-10-09T05:32:17.510Z,12.20
2022-10-09T05:37:02.482Z,11.30
2022-10-09T05:41:45.938Z,9.97
2022-10-09T05:46:29.970Z,19.57
2022-10-09T05:51:15.756Z,14.03
2022-10-09T05:56:11.727Z,9.87
2022-10-09T06:00:55.174Z,10.17
2022-10-09T06:05:38.644Z,10.27
2022-10-09T06:10:22.156Z,11.33
2022-10-09T06:15:09.415Z,8.93
2022-10-09T06:19:52.900Z,10.37
2022-10-09T06:24:36.924Z,12.13
2022-10-09T06:29:20.408Z,19.63
2022-10-09T06:34:05.234Z,22.47
2022-10-09T06:38:49.282Z,19.63
2022-10-09T06:43:32.771Z,19.07
2022-10-09T06:48:16.198Z,17.43
2022-10-09T06:53:01.153Z,26.37
2022-10-09T06:57:44.649Z,14.03
2022-10-09T07:02:28.413Z,15.13
2022-10-09T07:07:11.956Z,13.57
2022-10-09T07:11:56.957Z,14.37
2022-10-09T07:16:42.308Z,12.13
2022-10-09T07:21:25.993Z,10.57
2022-10-09T07:26:14.506Z,18.13
2022-10-09T07:31:07.818Z,15.03
2022-10-09T07:35:58.380Z,14.60
2022-10-09T07:40:41.838Z,12.57
2022-10-09T07:45:28.363Z,10.57
2022-10-09T07:50:13.334Z,10.17
2022-10-09T07:54:56.741Z,10.80
2022-10-09T07:59:40.194Z,9.70
2022-10-09T08:04:23.858Z,12.20
2022-10-09T08:09:09.517Z,10.40
2022-10-09T08:13:54.054Z,9.97
2022-10-09T08:18:38.122Z,10.60
2022-10-09T08:23:21.676Z,9.30
2022-10-09T08:28:06.917Z,9.33
2022-10-09T08:32:50.986Z,10.13
2022-10-09T08:37:34.812Z,9.57
2022-10-09T08:42:27.693Z,9.40
2022-10-09T08:47:18.011Z,8.67
2022-10-09T08:52:15.376Z,12.27
2022-10-09T08:57:01.272Z,6.30
2022-10-09T09:01:49.495Z,5.30
2022-10-09T09:06:44.180Z,8.67
2022-10-09T09:11:38.876Z,8.70
2022-10-09T09:16:30.664Z,10.00
2022-10-09T09:21:26.826Z,9.77
2022-10-09T09:26:16.643Z,9.83
2022-10-09T09:31:04.360Z,7.70
2022-10-09T09:35:53.293Z,6.40
2022-10-09T09:40:38.270Z,7.30
2022-10-09T09:45:26.522Z,7.27
2022-10-09T09:50:28.486Z,6.80
2022-10-09T09:55:27.751Z,6.83
2022-10-09T10:00:21.378Z,7.67
2022-10-09T10:05:23.235Z,6.63
2022-10-09T10:10:08.553Z,8.17
2022-10-09T10:14:52.545Z,8.47
2022-10-09T10:19:36.170Z,7.33
2022-10-09T10:24:27.830Z,9.93
2022-10-09T10:29:18.938Z,7.63
2022-10-09T10:34:06.367Z,10.20
2022-10-09T10:38:56.422Z,11.57
2022-10-09T10:43:47.116Z,8.03
2022-10-09T10:48:33.151Z,7.60
2022-10-09T10:53:25.859Z,8.93
2022-10-09T10:58:25.178Z,7.10
2022-10-09T11:03:25.451Z,11.23
2022-10-09T11:08:22.006Z,9.27
2022-10-09T11:13:12.525Z,10.17
2022-10-09T11:18:04.007Z,8.27
2022-10-09T11:23:01.079Z,13.37
2022-10-09T11:27:50.392Z,9.90
2022-10-09T11:37:30.069Z,7.63
2022-10-09T11:42:19.627Z,11.43
2022-10-09T11:47:10.944Z,9.30
2022-10-09T11:52:01.272Z,11.93
2022-10-09T11:56:55.881Z,8.73
2022-10-09T12:01:43.147Z,8.77
2022-10-09T12:06:26.757Z,7.40
2022-10-09T12:11:19.426Z,10.43
2022-10-09T12:16:02.966Z,8.37
2022-10-09T12:20:50.803Z,8.30
2022-10-09T12:25:42.083Z,8.80
2022-10-09T12:30:30.659Z,12.37
2022-10-09T12:35:23.133Z,11.67
2022-10-09T12:40:16.408Z,9.70
2022-10-09T12:45:00.008Z,12.03
2022-10-09T12:49:43.500Z,10.33
2022-10-09T12:54:28.753Z,12.93
2022-10-09T12:59:14.815Z,9.47
2022-10-09T13:03:59.544Z,10.87
2022-10-09T13:08:43.621Z,10.60
2022-10-09T13:13:29.315Z,8.97
2022-10-09T13:18:23.318Z,9.83
2022-10-09T13:23:07.875Z,10.20
2022-10-09T13:27:51.852Z,11.37
2022-10-09T13:32:35.829Z,7.63
2022-10-09T13:37:23.723Z,11.60
2022-10-09T13:42:07.933Z,10.33
2022-10-09T13:46:51.510Z,9.47
2022-10-09T13:51:36.290Z,12.83
2022-10-09T13:56:21.421Z,8.37
2022-10-09T14:01:05.480Z,12.13
2022-10-09T14:05:49.070Z,8.10
2022-10-09T14:10:32.605Z,10.83
2022-10-09T14:15:17.997Z,9.93
2022-10-09T14:20:01.594Z,9.97
2022-10-09T14:24:45.098Z,8.73
2022-10-09T14:29:28.602Z,10.93
2022-10-09T14:34:14.723Z,9.30
2022-10-09T14:39:00.582Z,9.67
2022-10-09T14:43:44.072Z,11.93
2022-10-09T14:48:27.703Z,8.63
2022-10-09T14:53:12.634Z,9.07
2022-10-09T14:57:56.138Z,10.60
2022-10-09T15:02:40.099Z,7.17
2022-10-09T15:07:23.687Z,10.73
2022-10-09T15:12:08.742Z,8.33
2022-10-09T15:16:52.185Z,9.17
2022-10-09T15:21:37.111Z,11.13
2022-10-09T15:26:20.628Z,8.33
2022-10-09T15:31:07.115Z,13.53
2022-10-09T15:35:50.673Z,10.53
2022-10-09T15:40:43.084Z,10.03
2022-10-09T15:45:26.627Z,8.90
2022-10-09T15:50:12.502Z,12.67
2022-10-09T15:54:55.993Z,11.57
2022-10-09T15:59:41.529Z,8.20
2022-10-09T16:04:25.129Z,8.77
2022-10-09T16:09:10.123Z,14.20
2022-10-09T16:13:53.809Z,15.63
2022-10-09T16:18:37.774Z,11.67
2022-10-09T16:23:21.558Z,12.97
2022-10-09T16:28:08.270Z,13.73
2022-10-09T16:32:52.511Z,9.80
2022-10-09T16:37:36.480Z,13.07
2022-10-09T16:42:19.905Z,14.60
2022-10-09T16:47:04.777Z,13.33
2022-10-09T16:51:48.310Z,19.33
2022-10-09T16:56:34.236Z,12.03
2022-10-09T17:01:18.231Z,13.30
2022-10-09T17:06:03.507Z,13.20
2022-10-09T17:10:47.453Z,12.80
2022-10-09T17:15:32.112Z,14.23
2022-10-09T17:20:16.814Z,13.17
2022-10-09T17:25:02.409Z,14.63
2022-10-09T17:29:46.198Z,17.13
2022-10-09T17:34:30.249Z,16.20
2022-10-09T17:39:15.799Z,15.37
2022-10-09T17:44:01.308Z,18.50
2022-10-09T17:48:50.393Z,16.80
2022-10-09T17:53:34.569Z,16.40
2022-10-09T17:58:19.063Z,20.73
2022-10-09T18:03:04.270Z,21.23
2022-10-09T18:07:48.838Z,21.60
2022-10-09T18:12:33.446Z,20.73
2022-10-09T18:17:18.411Z,14.53
2022-10-09T18:22:04.513Z,18.43
2022-10-09T18:26:48.569Z,22.43
2022-10-09T18:31:33.818Z,18.83
2022-10-09T18:36:20.796Z,23.93
2022-10-09T18:41:09.650Z,20.30
2022-10-09T18:45:54.455Z,20.30
2022-10-09T18:50:39.482Z,22.47
2022-10-09T18:55:24.588Z,25.03
2022-10-09T19:00:11.707Z,27.77
2022-10-09T19:04:55.901Z,19.43
2022-10-09T19:09:40.124Z,19.03
2022-10-09T19:14:23.916Z,20.67
2022-10-09T19:19:09.043Z,27.50
2022-10-09T19:23:54.279Z,18.60
2022-10-09T19:28:39.479Z,15.87
2022-10-09T19:33:23.391Z,20.10
2022-10-09T19:38:09.124Z,18.97
2022-10-09T19:42:53.178Z,22.20
2022-10-09T19:47:37.877Z,18.43
2022-10-09T19:52:23.188Z,18.43
2022-10-09T19:57:08.708Z,17.50
2022-10-09T20:01:57.256Z,15.60
2022-10-09T20:06:43.153Z,22.23
2022-10-09T20:11:28.066Z,19.10
2022-10-09T20:16:14.610Z,19.27
2022-10-09T20:20:58.390Z,15.37
2022-10-09T20:25:42.133Z,16.13
2022-10-09T20:30:25.745Z,14.83
2022-10-09T20:35:11.221Z,17.97
2022-10-09T20:39:55.258Z,14.23
2022-10-09T20:44:39.076Z,21.03
2022-10-09T20:49:22.598Z,19.33
2022-10-09T20:54:09.124Z,17.73
2022-10-09T20:58:52.927Z,14.07
2022-10-09T21:03:37.459Z,12.63
2022-10-09T21:08:28.451Z,16.93
2022-10-09T21:13:14.678Z,15.67
2022-10-09T21:17:58.381Z,14.73
2022-10-09T21:22:41.991Z,12.53
2022-10-09T21:27:25.498Z,11.53
2022-10-09T21:32:10.545Z,13.63
2022-10-09T21:37:19.859Z,18.17
2022-10-09T21:41:59.719Z,12.87
2022-10-09T21:46:43.389Z,16.53
2022-10-09T21:51:28.735Z,10.73
2022-10-09T21:56:12.455Z,11.87
2022-10-09T22:00:59.841Z,14.17
2022-10-09T22:05:43.380Z,9.53
2022-10-09T22:10:28.668Z,11.93
2022-10-09T22:15:12.557Z,13.07
2022-10-09T22:19:56.043Z,20.30
2022-10-09T22:24:39.692Z,24.13
2022-10-09T22:29:24.634Z,20.10
2022-10-09T22:34:08.504Z,27.10
2022-10-09T22:38:54.607Z,23.60
2022-10-09T22:43:40.367Z,24.27
2022-10-09T22:48:25.340Z,30.60
2022-10-09T22:53:09.078Z,30.87
2022-10-09T22:57:52.594Z,32.33
2022-10-09T23:02:36.201Z,29.20
2022-10-09T23:07:21.105Z,24.30
2022-10-09T23:12:04.631Z,22.60
2022-10-09T23:16:48.269Z,29.40
2022-10-09T23:21:31.762Z,22.60
2022-10-09T23:26:18.783Z,22.93
2022-10-09T23:31:03.448Z,19.10
2022-10-09T23:35:46.988Z,22.17
2022-10-09T23:40:30.454Z,21.23
2022-10-09T23:45:16.145Z,18.40
2022-10-09T23:49:59.669Z,17.37
2022-10-09T23:54:43.299Z,16.27
2022-10-09T23:59:26.713Z,17.07
